createdAt,value
2019-03-23T00:00:49.686Z,1029.07
2019-03-23T00:01:49.712Z,1029.08
2019-03-23T00:02:49.734Z,1029.08
2019-03-23T00:03:49.754Z,1029.06
2019-03-23T00:04:49.776Z,1029.08
2019-03-23T00:05:49.805Z,1029.09
2019-03-23T00:06:49.822Z,1029.12
2019-03-23T00:07:49.845Z,1029.12
2019-03-23T00:08:49.868Z,1029.09
2019-03-23T00:09:49.891Z,1029.10
2019-03-23T00:10:49.914Z,1029.04
2019-03-23T00:11:49.989Z,1029.09
2019-03-23T00:12:49.958Z,1029.08
2019-03-23T00:13:49.991Z,1029.07
2019-03-23T00:14:50.007Z,1029.06
2019-03-23T00:15:50.033Z,1029.05
2019-03-23T00:16:50.053Z,1029.03
2019-03-23T00:17:50.076Z,1028.99
2019-03-23T00:18:50.097Z,1028.99
2019-03-23T00:19:50.119Z,1028.99
2019-03-23T00:20:50.142Z,1028.98
2019-03-23T00:21:50.167Z,1028.93
2019-03-23T00:22:50.192Z,1028.85
2019-03-23T00:23:50.213Z,1028.89
2019-03-23T00:24:50.242Z,1028.84
2019-03-23T00:25:50.259Z,1028.81
2019-03-23T00:26:50.284Z,1028.82
2019-03-23T00:27:50.305Z,1028.78
2019-03-23T00:28:50.330Z,1028.76
2019-03-23T00:29:50.349Z,1028.74
2019-03-23T00:30:50.375Z,1028.72
2019-03-23T00:31:50.395Z,1028.69
2019-03-23T00:32:50.418Z,1028.69
2019-03-23T00:33:50.449Z,1028.65
2019-03-23T00:34:50.468Z,1028.62
2019-03-23T00:35:50.490Z,1028.58
2019-03-23T00:36:50.514Z,1028.55
2019-03-23T00:37:50.537Z,1028.54
2019-03-23T00:38:50.557Z,1028.54
2019-03-23T00:39:50.581Z,1028.52
2019-03-23T00:40:50.607Z,1028.49
2019-03-23T00:41:50.630Z,1028.46
2019-03-23T00:42:50.653Z,1028.43
2019-03-23T00:43:50.674Z,1028.42
2019-03-23T00:44:50.700Z,1028.39
2019-03-23T00:45:50.721Z,1028.33
2019-03-23T00:46:50.746Z,1028.29
2019-03-23T00:47:50.769Z,1028.33
2019-03-23T00:48:50.789Z,1028.29
2019-03-23T00:49:50.813Z,1028.31
2019-03-23T00:50:50.836Z,1028.30
2019-03-23T00:51:50.860Z,1028.28
2019-03-23T00:52:50.882Z,1028.25
2019-03-23T00:53:50.907Z,1028.27
2019-03-23T00:54:50.931Z,1028.22
2019-03-23T00:55:50.959Z,1028.23
2019-03-23T00:56:50.977Z,1028.22
2019-03-23T00:57:50.999Z,1028.19
2019-03-23T00:58:51.025Z,1028.16
2019-03-23T00:59:51.046Z,1028.20
2019-03-23T01:00:51.069Z,1028.16
2019-03-23T01:01:51.092Z,1028.16
2019-03-23T01:02:51.115Z,1028.19
2019-03-23T01:03:51.140Z,1028.16
2019-03-23T01:04:51.163Z,1028.13
2019-03-23T01:05:51.186Z,1028.13
2019-03-23T01:06:52.375Z,1028.08
2019-03-23T01:07:51.234Z,1028.05
2019-03-23T01:08:51.258Z,1028.03
2019-03-23T01:09:51.280Z,1028.01
2019-03-23T01:10:51.303Z,1028.01
2019-03-23T01:11:51.331Z,1027.96
2019-03-23T01:12:51.349Z,1027.99
2019-03-23T01:13:51.374Z,1028.00
2019-03-23T01:14:51.398Z,1027.95
2019-03-23T01:15:51.419Z,1027.97
2019-03-23T01:16:51.443Z,1027.97
2019-03-23T01:17:51.469Z,1027.91
2019-03-23T01:18:51.491Z,1027.89
2019-03-23T01:19:51.513Z,1027.90
2019-03-23T01:20:51.540Z,1027.87
2019-03-23T01:21:51.561Z,1027.89
2019-03-23T01:22:51.585Z,1027.93
2019-03-23T01:23:51.611Z,1027.91
2019-03-23T01:24:51.633Z,1027.95
2019-03-23T01:25:51.658Z,1027.99
2019-03-23T01:26:51.680Z,1027.99
2019-03-23T01:27:51.702Z,1028.08
2019-03-23T01:28:51.727Z,1028.09
2019-03-23T01:29:51.752Z,1028.07
2019-03-23T01:30:51.774Z,1028.13
2019-03-23T01:31:51.803Z,1028.15
2019-03-23T01:32:51.822Z,1028.15
2019-03-23T01:33:51.847Z,1028.13
2019-03-23T01:34:51.871Z,1028.15
2019-03-23T01:35:51.891Z,1028.14
2019-03-23T01:37:02.303Z,1028.18
2019-03-23T01:37:51.939Z,1028.14
2019-03-23T01:38:51.964Z,1028.14
2019-03-23T01:39:51.988Z,1028.16
2019-03-23T01:40:52.013Z,1028.15
2019-03-23T01:41:52.037Z,1028.16
2019-03-23T01:42:52.057Z,1028.16
2019-03-23T01:43:52.081Z,1028.13
2019-03-23T01:44:52.102Z,1028.12
2019-03-23T01:45:52.126Z,1028.13
2019-03-23T01:46:52.152Z,1028.09
2019-03-23T01:47:52.178Z,1028.00
2019-03-23T01:48:52.197Z,1027.96
2019-03-23T01:49:52.221Z,1027.94
2019-03-23T01:50:52.244Z,1027.95
2019-03-23T01:51:52.268Z,1027.93
2019-03-23T01:52:52.293Z,1027.90
2019-03-23T01:53:52.313Z,1027.91
2019-03-23T01:54:52.336Z,1027.91
2019-03-23T01:55:52.359Z,1027.91
2019-03-23T01:56:52.384Z,1027.90
2019-03-23T01:57:52.408Z,1027.92
2019-03-23T01:58:52.429Z,1027.87
2019-03-23T01:59:52.451Z,1027.88
2019-03-23T02:00:52.479Z,1027.82
2019-03-23T02:01:52.501Z,1027.77
2019-03-23T02:02:52.523Z,1027.79
2019-03-23T02:03:52.546Z,1027.76
2019-03-23T02:04:52.566Z,1027.75
2019-03-23T02:05:52.592Z,1027.70
2019-03-23T02:06:52.615Z,1027.65
2019-03-23T02:07:52.639Z,1027.65
2019-03-23T02:08:52.659Z,1027.66
2019-03-23T02:09:52.683Z,1027.67
2019-03-23T02:10:52.706Z,1027.69
2019-03-23T02:11:52.729Z,1027.67
2019-03-23T02:12:52.749Z,1027.63
2019-03-23T02:13:52.771Z,1027.62
2019-03-23T02:14:52.795Z,1027.61
2019-03-23T02:15:52.816Z,1027.57
2019-03-23T02:16:52.840Z,1027.60
2019-03-23T02:17:52.863Z,1027.61
2019-03-23T02:18:52.888Z,1027.55
2019-03-23T02:19:52.906Z,1027.57
2019-03-23T02:20:52.929Z,1027.53
2019-03-23T02:21:52.953Z,1027.51
2019-03-23T02:22:52.976Z,1027.52
2019-03-23T02:23:53.006Z,1027.50
2019-03-23T02:24:53.020Z,1027.53
2019-03-23T02:25:53.043Z,1027.52
2019-03-23T02:26:53.069Z,1027.48
2019-03-23T02:27:53.091Z,1027.45
2019-03-23T02:28:53.111Z,1027.43
2019-03-23T02:29:53.134Z,1027.43
2019-03-23T02:30:53.157Z,1027.38
2019-03-23T02:31:53.178Z,1027.34
2019-03-23T02:32:53.203Z,1027.34
2019-03-23T02:33:53.224Z,1027.32
2019-03-23T02:34:53.250Z,1027.32
2019-03-23T02:35:53.267Z,1027.34
2019-03-23T02:36:53.296Z,1027.29
2019-03-23T02:37:53.316Z,1027.24
2019-03-23T02:38:53.335Z,1027.23
2019-03-23T02:39:53.363Z,1027.27
2019-03-23T02:40:53.401Z,1027.20
2019-03-23T02:41:53.413Z,1027.15
2019-03-23T02:42:53.424Z,1027.12
2019-03-23T02:43:53.448Z,1027.12
2019-03-23T02:44:53.473Z,1027.04
2019-03-23T02:45:53.509Z,1027.04
2019-03-23T02:46:53.518Z,1027.04
2019-03-23T02:47:53.539Z,1027.01
2019-03-23T02:48:53.558Z,1027.05
2019-03-23T02:49:53.612Z,1027.06
2019-03-23T02:50:53.602Z,1027.02
2019-03-23T02:51:53.628Z,1027.04
2019-03-23T02:52:53.646Z,1026.99
2019-03-23T02:53:53.669Z,1027.02
2019-03-23T02:54:53.697Z,1026.98
2019-03-23T02:55:53.717Z,1026.94
2019-03-23T02:56:53.739Z,1026.91
2019-03-23T02:57:53.764Z,1026.89
2019-03-23T02:58:53.782Z,1026.88
2019-03-23T02:59:53.808Z,1026.85
2019-03-23T03:00:53.890Z,1026.87
2019-03-23T03:01:53.849Z,1026.81
2019-03-23T03:02:53.880Z,1026.91
2019-03-23T03:03:53.894Z,1026.88
2019-03-23T03:04:53.920Z,1026.92
2019-03-23T03:05:53.945Z,1026.90
2019-03-23T03:06:53.964Z,1026.89
2019-03-23T03:07:53.988Z,1026.90
2019-03-23T03:08:54.009Z,1026.90
2019-03-23T03:09:54.033Z,1026.88
2019-03-23T03:10:54.059Z,1026.86
2019-03-23T03:11:54.085Z,1026.88
2019-03-23T03:12:54.101Z,1026.85
2019-03-23T03:13:54.125Z,1026.89
2019-03-23T03:14:54.150Z,1026.92
2019-03-23T03:15:54.173Z,1026.94
2019-03-23T03:16:54.196Z,1026.87
2019-03-23T03:17:54.217Z,1026.89
2019-03-23T03:18:54.245Z,1026.81
2019-03-23T03:19:54.269Z,1026.76
2019-03-23T03:20:54.295Z,1026.74
2019-03-23T03:21:54.311Z,1026.77
2019-03-23T03:22:54.335Z,1026.73
2019-03-23T03:23:54.359Z,1026.69
2019-03-23T03:24:54.484Z,1026.68
2019-03-23T03:25:54.404Z,1026.64
2019-03-23T03:26:54.428Z,1026.59
2019-03-23T03:27:54.453Z,1026.54
2019-03-23T03:28:54.476Z,1026.52
2019-03-23T03:29:54.497Z,1026.52
2019-03-23T03:30:54.525Z,1026.48
2019-03-23T03:31:54.554Z,1026.45
2019-03-23T03:32:54.567Z,1026.43
2019-03-23T03:33:54.599Z,1026.39
2019-03-23T03:34:54.621Z,1026.40
2019-03-23T03:35:54.636Z,1026.39
2019-03-23T03:36:54.661Z,1026.38
2019-03-23T03:37:57.032Z,1026.36
2019-03-23T03:38:54.710Z,1026.31
2019-03-23T03:39:54.736Z,1026.27
2019-03-23T03:40:54.754Z,1026.27
2019-03-23T03:41:54.785Z,1026.26
2019-03-23T03:42:54.805Z,1026.30
2019-03-23T03:43:54.825Z,1026.34
2019-03-23T03:44:54.858Z,1026.36
2019-03-23T03:45:54.876Z,1026.35
2019-03-23T03:46:54.897Z,1026.30
2019-03-23T03:47:54.926Z,1026.28
2019-03-23T03:48:54.949Z,1026.24
2019-03-23T03:49:54.968Z,1026.21
2019-03-23T03:50:54.993Z,1026.18
2019-03-23T03:51:55.015Z,1026.14
2019-03-23T03:52:55.039Z,1026.08
2019-03-23T03:53:55.062Z,1026.09
2019-03-23T03:54:55.095Z,1026.10
2019-03-23T03:55:55.114Z,1026.03
2019-03-23T03:56:55.135Z,1026.09
2019-03-23T03:57:55.232Z,1026.07
2019-03-23T03:58:55.189Z,1026.09
2019-03-23T03:59:55.205Z,1025.98
2019-03-23T04:00:55.230Z,1026.03
2019-03-23T04:01:55.252Z,1026.04
2019-03-23T04:02:55.280Z,1026.02
2019-03-23T04:03:55.301Z,1025.94
2019-03-23T04:04:55.327Z,1025.96
2019-03-23T04:05:55.351Z,1025.97
2019-03-23T04:06:55.371Z,1025.97
2019-03-23T04:08:09.974Z,1025.94
2019-03-23T04:08:55.422Z,1025.99
2019-03-23T04:09:55.445Z,1025.93
2019-03-23T04:10:55.470Z,1025.94
2019-03-23T04:11:55.492Z,1025.87
2019-03-23T04:12:55.520Z,1025.85
2019-03-23T04:13:55.537Z,1025.83
2019-03-23T04:14:55.560Z,1025.85
2019-03-23T04:15:55.584Z,1025.83
2019-03-23T04:16:55.613Z,1025.82
2019-03-23T04:17:55.637Z,1025.81
2019-03-23T04:18:55.658Z,1025.81
2019-03-23T04:19:55.686Z,1025.81
2019-03-23T04:20:55.726Z,1025.84
2019-03-23T04:21:55.732Z,1025.79
2019-03-23T04:22:55.755Z,1025.84
2019-03-23T04:23:55.776Z,1025.80
2019-03-23T04:24:55.801Z,1025.74
2019-03-23T04:25:55.826Z,1025.76
2019-03-23T04:26:55.849Z,1025.77
2019-03-23T04:27:55.880Z,1025.73
2019-03-23T04:28:55.896Z,1025.73
2019-03-23T04:29:55.924Z,1025.71
2019-03-23T04:30:55.944Z,1025.67
2019-03-23T04:31:55.978Z,1025.69
2019-03-23T04:32:55.992Z,1025.68
2019-03-23T04:33:56.016Z,1025.59
2019-03-23T04:34:56.040Z,1025.64
2019-03-23T04:35:56.068Z,1025.63
2019-03-23T04:36:56.091Z,1025.61
2019-03-23T04:37:56.123Z,1025.60
2019-03-23T04:38:56.140Z,1025.54
2019-03-23T04:39:56.160Z,1025.61
2019-03-23T04:40:56.190Z,1025.57
2019-03-23T04:41:56.211Z,1025.58
2019-03-23T04:42:56.234Z,1025.53
2019-03-23T04:43:56.259Z,1025.54
2019-03-23T04:44:56.281Z,1025.49
2019-03-23T04:45:56.310Z,1025.49
2019-03-23T04:46:56.330Z,1025.54
2019-03-23T04:47:56.356Z,1025.49
2019-03-23T04:48:56.380Z,1025.50
2019-03-23T04:49:56.402Z,1025.46
2019-03-23T04:50:56.441Z,1025.44
2019-03-23T04:51:56.454Z,1025.44
2019-03-23T04:52:56.476Z,1025.40
2019-03-23T04:53:56.500Z,1025.41
2019-03-23T04:54:56.524Z,1025.38
2019-03-23T04:55:56.548Z,1025.42
2019-03-23T04:56:56.578Z,1025.39
2019-03-23T04:57:56.600Z,1025.34
2019-03-23T04:58:56.624Z,1025.34
2019-03-23T04:59:56.648Z,1025.36
2019-03-23T05:00:56.677Z,1025.31
2019-03-23T05:01:56.698Z,1025.31
2019-03-23T05:02:56.729Z,1025.27
2019-03-23T05:03:56.746Z,1025.24
2019-03-23T05:04:56.774Z,1025.24
2019-03-23T05:05:56.798Z,1025.22
2019-03-23T05:06:56.826Z,1025.20
2019-03-23T05:07:56.846Z,1025.16
2019-03-23T05:08:56.872Z,1025.11
2019-03-23T05:09:56.898Z,1025.13
2019-03-23T05:10:56.924Z,1025.02
2019-03-23T05:11:56.947Z,1025.05
2019-03-23T05:12:56.973Z,1024.98
2019-03-23T05:13:56.998Z,1024.92
2019-03-23T05:14:57.023Z,1024.86
2019-03-23T05:15:57.052Z,1024.91
2019-03-23T05:16:57.077Z,1024.84
2019-03-23T05:17:57.103Z,1024.85
2019-03-23T05:18:57.127Z,1024.81
2019-03-23T05:19:57.150Z,1024.78
2019-03-23T05:20:57.192Z,1024.84
2019-03-23T05:21:57.204Z,1024.70
2019-03-23T05:22:57.229Z,1024.66
2019-03-23T05:23:57.255Z,1024.64
2019-03-23T05:24:57.282Z,1024.64
2019-03-23T05:25:57.305Z,1024.65
2019-03-23T05:26:57.333Z,1024.60
2019-03-23T05:27:57.366Z,1024.65
2019-03-23T05:28:57.387Z,1024.66
2019-03-23T05:29:57.409Z,1024.66
2019-03-23T05:30:57.441Z,1024.59
2019-03-23T05:31:57.464Z,1024.58
2019-03-23T05:32:57.494Z,1024.62
2019-03-23T05:33:57.518Z,1024.54
2019-03-23T05:34:57.545Z,1024.53
2019-03-23T05:35:57.570Z,1024.60
2019-03-23T05:36:57.601Z,1024.53
2019-03-23T05:37:57.624Z,1024.49
2019-03-23T05:38:57.652Z,1024.49
2019-03-23T05:39:57.678Z,1024.57
2019-03-23T05:40:57.708Z,1024.54
2019-03-23T05:41:57.733Z,1024.58
2019-03-23T05:42:57.758Z,1024.56
2019-03-23T05:43:57.791Z,1024.58
2019-03-23T05:44:57.815Z,1024.60
2019-03-23T05:45:57.841Z,1024.61
2019-03-23T05:46:57.870Z,1024.56
2019-03-23T05:47:57.895Z,1024.55
2019-03-23T05:48:57.922Z,1024.54
2019-03-23T05:49:57.950Z,1024.54
2019-03-23T05:50:57.980Z,1024.49
2019-03-23T05:51:58.007Z,1024.44
2019-03-23T05:52:58.035Z,1024.52
2019-03-23T05:53:58.065Z,1024.49
2019-03-23T05:54:58.088Z,1024.58
2019-03-23T05:55:58.116Z,1024.51
2019-03-23T05:56:58.145Z,1024.59
2019-03-23T05:57:58.173Z,1024.60
2019-03-23T05:58:58.205Z,1024.58
2019-03-23T05:59:58.227Z,1024.55
2019-03-23T06:00:58.255Z,1024.56
2019-03-23T06:01:58.287Z,1024.55
2019-03-23T06:02:58.311Z,1024.59
2019-03-23T06:03:58.338Z,1024.55
2019-03-23T06:04:58.366Z,1024.53
2019-03-23T06:05:58.394Z,1024.50
2019-03-23T06:06:58.424Z,1024.50
2019-03-23T06:07:58.449Z,1024.50
2019-03-23T06:08:58.482Z,1024.50
2019-03-23T06:09:58.508Z,1024.50
2019-03-23T06:10:58.533Z,1024.51
2019-03-23T06:11:58.562Z,1024.56
2019-03-23T06:12:58.588Z,1024.51
2019-03-23T06:13:58.620Z,1024.55
2019-03-23T06:14:58.644Z,1024.50
2019-03-23T06:15:58.672Z,1024.48
2019-03-23T06:16:58.701Z,1024.45
2019-03-23T06:17:58.732Z,1024.50
2019-03-23T06:18:58.756Z,1024.53
2019-03-23T06:19:58.787Z,1024.45
2019-03-23T06:20:58.812Z,1024.43
2019-03-23T06:21:58.841Z,1024.35
2019-03-23T06:22:58.870Z,1024.38
2019-03-23T06:23:58.901Z,1024.30
2019-03-23T06:24:58.928Z,1024.27
2019-03-23T06:25:58.953Z,1024.29
2019-03-23T06:26:58.983Z,1024.26
2019-03-23T06:27:59.011Z,1024.29
2019-03-23T06:28:59.037Z,1024.26
2019-03-23T06:29:59.066Z,1024.28
2019-03-23T06:30:59.099Z,1024.24
2019-03-23T06:31:59.121Z,1024.26
2019-03-23T06:32:59.492Z,1024.24
2019-03-23T06:33:59.182Z,1024.21
2019-03-23T06:34:59.209Z,1024.22
2019-03-23T06:35:59.237Z,1024.16
2019-03-23T06:36:59.267Z,1024.06
2019-03-23T06:37:59.296Z,1024.06
2019-03-23T06:39:05.421Z,1024.03
2019-03-23T06:39:59.350Z,1024.01
2019-03-23T06:40:59.381Z,1023.97
2019-03-23T06:41:59.412Z,1024.00
2019-03-23T06:43:00.096Z,1023.96
2019-03-23T06:43:59.466Z,1024.01
2019-03-23T06:44:59.502Z,1024.00
2019-03-23T06:45:59.528Z,1024.01
2019-03-23T06:46:59.553Z,1024.00
2019-03-23T06:47:59.581Z,1024.00
2019-03-23T06:48:59.622Z,1023.94
2019-03-23T06:49:59.641Z,1023.96
2019-03-23T06:50:59.669Z,1023.99
2019-03-23T06:51:59.699Z,1023.96
2019-03-23T06:52:59.728Z,1023.90
2019-03-23T06:53:59.757Z,1023.94
2019-03-23T06:54:59.788Z,1023.85
2019-03-23T06:55:59.820Z,1023.88
2019-03-23T06:56:59.849Z,1023.87
2019-03-23T06:57:59.881Z,1023.81
2019-03-23T06:58:59.910Z,1023.79
2019-03-23T06:59:59.940Z,1023.82
2019-03-23T07:00:59.974Z,1023.91
2019-03-23T07:02:00.004Z,1023.91
2019-03-23T07:03:00.039Z,1024.01
2019-03-23T07:04:00.078Z,1024.02
2019-03-23T07:05:00.341Z,1023.96
2019-03-23T07:06:00.135Z,1023.95
2019-03-23T07:07:00.166Z,1023.88
2019-03-23T07:08:00.200Z,1023.92
2019-03-23T07:09:00.235Z,1023.90
2019-03-23T07:10:00.311Z,1023.84
2019-03-23T07:11:00.300Z,1023.85
2019-03-23T07:12:00.337Z,1023.82
2019-03-23T07:13:00.366Z,1023.78
2019-03-23T07:14:00.400Z,1023.78
2019-03-23T07:15:00.436Z,1023.75
2019-03-23T07:16:00.466Z,1023.66
2019-03-23T07:17:00.633Z,1023.68
2019-03-23T07:18:00.534Z,1023.69
2019-03-23T07:19:00.567Z,1023.68
2019-03-23T07:20:00.602Z,1023.57
2019-03-23T07:21:00.639Z,1023.55
2019-03-23T07:22:00.668Z,1023.57
2019-03-23T07:23:00.708Z,1023.51
2019-03-23T07:24:00.735Z,1023.55
2019-03-23T07:25:00.769Z,1023.49
2019-03-23T07:26:00.804Z,1023.52
2019-03-23T07:27:00.838Z,1023.47
2019-03-23T07:28:00.895Z,1023.40
2019-03-23T07:29:00.906Z,1023.39
2019-03-23T07:30:00.937Z,1023.36
2019-03-23T07:31:00.971Z,1023.32
2019-03-23T07:32:05.630Z,1023.36
2019-03-23T07:33:01.037Z,1023.32
2019-03-23T07:34:01.070Z,1023.38
2019-03-23T07:35:01.108Z,1023.37
2019-03-23T07:36:01.134Z,1023.40
2019-03-23T07:37:01.180Z,1023.41
2019-03-23T07:38:01.201Z,1023.40
2019-03-23T07:39:01.235Z,1023.32
2019-03-23T07:40:01.266Z,1023.29
2019-03-23T07:41:01.301Z,1023.27
2019-03-23T07:42:01.332Z,1023.19
2019-03-23T07:43:01.370Z,1023.19
2019-03-23T07:44:01.397Z,1023.20
2019-03-23T07:45:01.442Z,1023.08
2019-03-23T07:46:01.466Z,1023.02
2019-03-23T07:47:01.498Z,1023.00
2019-03-23T07:48:01.530Z,1023.00
2019-03-23T07:49:01.560Z,1023.01
2019-03-23T07:50:01.599Z,1023.05
2019-03-23T07:51:01.629Z,1023.05
2019-03-23T07:52:01.659Z,1023.05
2019-03-23T07:53:01.695Z,1023.00
2019-03-23T07:54:02.711Z,1023.03
2019-03-23T07:55:01.761Z,1023.00
2019-03-23T07:56:01.791Z,1023.04
2019-03-23T07:57:01.825Z,1023.02
2019-03-23T07:58:01.857Z,1023.00
2019-03-23T07:59:01.897Z,1022.99
2019-03-23T08:00:01.925Z,1022.98
2019-03-23T08:01:01.958Z,1022.96
2019-03-23T08:02:01.991Z,1022.95
2019-03-23T08:03:02.026Z,1022.88
2019-03-23T08:04:02.060Z,1022.84
2019-03-23T08:05:02.094Z,1022.81
2019-03-23T08:06:02.126Z,1022.82
2019-03-23T08:07:02.159Z,1022.76
2019-03-23T08:08:02.187Z,1022.79
2019-03-23T08:09:02.221Z,1022.70
2019-03-23T08:10:02.260Z,1022.67
2019-03-23T08:11:02.296Z,1022.69
2019-03-23T08:12:02.322Z,1022.64
2019-03-23T08:13:02.360Z,1022.69
2019-03-23T08:14:02.389Z,1022.68
2019-03-23T08:15:02.426Z,1022.62
2019-03-23T08:16:02.456Z,1022.54
2019-03-23T08:17:02.484Z,1022.55
2019-03-23T08:18:02.519Z,1022.53
2019-03-23T08:19:02.551Z,1022.57
2019-03-23T08:20:02.585Z,1022.59
2019-03-23T08:21:02.620Z,1022.55
2019-03-23T08:22:02.649Z,1022.59
2019-03-23T08:23:02.682Z,1022.55
2019-03-23T08:24:02.721Z,1022.55
2019-03-23T08:25:02.748Z,1022.57
2019-03-23T08:26:02.785Z,1022.58
2019-03-23T08:27:02.811Z,1022.50
2019-03-23T08:28:02.843Z,1022.51
2019-03-23T08:29:03.347Z,1022.48
2019-03-23T08:30:02.910Z,1022.43
2019-03-23T08:31:02.942Z,1022.42
2019-03-23T08:32:02.975Z,1022.36
2019-03-23T08:33:03.010Z,1022.36
2019-03-23T08:34:03.044Z,1022.38
2019-03-23T08:35:03.077Z,1022.34
2019-03-23T08:36:03.106Z,1022.35
2019-03-23T08:37:03.143Z,1022.37
2019-03-23T08:38:03.172Z,1022.29
2019-03-23T08:39:03.206Z,1022.32
2019-03-23T08:40:03.282Z,1022.36
2019-03-23T08:41:03.273Z,1022.31
2019-03-23T08:42:03.310Z,1022.37
2019-03-23T08:43:03.344Z,1022.31
2019-03-23T08:44:03.383Z,1022.16
2019-03-23T08:45:03.409Z,1022.22
2019-03-23T08:46:03.444Z,1022.22
2019-03-23T08:47:03.477Z,1022.28
2019-03-23T08:48:03.512Z,1022.19
2019-03-23T08:49:03.546Z,1022.27
2019-03-23T08:50:03.580Z,1022.26
2019-03-23T08:51:03.614Z,1022.30
2019-03-23T08:52:03.650Z,1022.22
2019-03-23T08:53:03.682Z,1022.11
2019-03-23T08:54:03.719Z,1022.03
2019-03-23T08:55:03.751Z,1021.91
2019-03-23T08:56:03.785Z,1021.93
2019-03-23T08:57:03.821Z,1021.89
2019-03-23T08:58:03.856Z,1021.88
2019-03-23T08:59:03.890Z,1021.89
2019-03-23T09:00:03.926Z,1021.89
2019-03-23T09:01:03.957Z,1021.78
2019-03-23T09:02:03.995Z,1021.69
2019-03-23T09:03:04.030Z,1021.74
2019-03-23T09:04:04.059Z,1021.73
2019-03-23T09:05:04.093Z,1021.68
2019-03-23T09:06:04.131Z,1021.60
2019-03-23T09:07:04.162Z,1021.54
2019-03-23T09:08:04.191Z,1021.63
2019-03-23T09:09:04.225Z,1021.64
2019-03-23T09:10:04.263Z,1021.60
2019-03-23T09:11:04.293Z,1021.51
2019-03-23T09:12:04.326Z,1021.52
2019-03-23T09:13:04.360Z,1021.54
2019-03-23T09:14:04.392Z,1021.49
2019-03-23T09:15:04.427Z,1021.49
2019-03-23T09:16:04.462Z,1021.41
2019-03-23T09:17:04.494Z,1021.42
2019-03-23T09:18:04.526Z,1021.43
2019-03-23T09:19:04.564Z,1021.43
2019-03-23T09:20:04.590Z,1021.39
2019-03-23T09:21:04.626Z,1021.34
2019-03-23T09:22:04.658Z,1021.42
2019-03-23T09:23:04.692Z,1021.45
2019-03-23T09:24:04.727Z,1021.50
2019-03-23T09:25:04.758Z,1021.49
2019-03-23T09:26:04.792Z,1021.52
2019-03-23T09:27:04.822Z,1021.48
2019-03-23T09:28:04.860Z,1021.39
2019-03-23T09:29:04.888Z,1021.41
2019-03-23T09:30:04.920Z,1021.49
2019-03-23T09:31:04.955Z,1021.50
2019-03-23T09:32:04.986Z,1021.45
2019-03-23T09:33:05.021Z,1021.50
2019-03-23T09:34:05.052Z,1021.40
2019-03-23T09:35:05.086Z,1021.44
2019-03-23T09:36:05.119Z,1021.44
2019-03-23T09:37:05.148Z,1021.38
2019-03-23T09:38:05.186Z,1021.39
2019-03-23T09:39:05.221Z,1021.36
2019-03-23T09:40:10.793Z,1021.35
2019-03-23T09:41:05.284Z,1021.37
2019-03-23T09:42:07.050Z,1021.38
2019-03-23T09:43:05.346Z,1021.38
2019-03-23T09:44:05.380Z,1021.42
2019-03-23T09:45:05.409Z,1021.41
2019-03-23T09:46:05.450Z,1021.36
2019-03-23T09:47:05.476Z,1021.37
2019-03-23T09:48:05.509Z,1021.31
2019-03-23T09:49:05.542Z,1021.24
2019-03-23T09:50:05.571Z,1021.18
2019-03-23T09:51:05.605Z,1021.22
2019-03-23T09:52:05.637Z,1021.10
2019-03-23T09:53:05.673Z,1021.09
2019-03-23T09:54:05.700Z,1021.08
2019-03-23T09:55:05.733Z,1020.96
2019-03-23T09:56:05.766Z,1021.01
2019-03-23T09:57:05.797Z,1020.98
2019-03-23T09:58:05.830Z,1020.89
2019-03-23T09:59:05.867Z,1020.92
2019-03-23T10:00:05.897Z,1020.92
2019-03-23T10:01:05.928Z,1020.92
2019-03-23T10:02:05.960Z,1020.91
2019-03-23T10:03:05.993Z,1020.92
2019-03-23T10:04:06.023Z,1020.92
2019-03-23T10:05:06.062Z,1020.92
2019-03-23T10:06:06.139Z,1020.98
2019-03-23T10:07:06.123Z,1020.96
2019-03-23T10:08:06.153Z,1020.97
2019-03-23T10:09:06.187Z,1020.93
2019-03-23T10:10:06.219Z,1020.91
2019-03-23T10:11:06.251Z,1020.92
2019-03-23T10:12:06.283Z,1020.85
2019-03-23T10:13:06.319Z,1020.94
2019-03-23T10:14:06.346Z,1021.02
2019-03-23T10:15:06.380Z,1020.99
2019-03-23T10:16:06.411Z,1020.95
2019-03-23T10:17:06.445Z,1020.96
2019-03-23T10:18:06.477Z,1020.99
2019-03-23T10:19:06.510Z,1020.94
2019-03-23T10:20:06.543Z,1020.91
2019-03-23T10:21:06.575Z,1020.89
2019-03-23T10:22:06.605Z,1020.96
2019-03-23T10:23:06.638Z,1021.01
2019-03-23T10:24:06.669Z,1020.95
2019-03-23T10:25:06.707Z,1020.83
2019-03-23T10:26:06.737Z,1020.83
2019-03-23T10:27:06.768Z,1020.91
2019-03-23T10:28:06.802Z,1020.86
2019-03-23T10:29:06.836Z,1020.86
2019-03-23T10:30:06.864Z,1020.82
2019-03-23T10:31:06.904Z,1020.85
2019-03-23T10:32:06.933Z,1020.88
2019-03-23T10:33:06.963Z,1020.85
2019-03-23T10:34:06.995Z,1020.83
2019-03-23T10:35:07.028Z,1020.87
2019-03-23T10:36:07.065Z,1020.72
2019-03-23T10:37:07.094Z,1020.68
2019-03-23T10:38:07.128Z,1020.61
2019-03-23T10:39:07.167Z,1020.64
2019-03-23T10:40:07.418Z,1020.61
2019-03-23T10:41:07.227Z,1020.69
2019-03-23T10:42:07.260Z,1020.64
2019-03-23T10:43:07.297Z,1020.65
2019-03-23T10:44:07.324Z,1020.58
2019-03-23T10:45:07.361Z,1020.60
2019-03-23T10:46:07.391Z,1020.65
2019-03-23T10:47:07.425Z,1020.47
2019-03-23T10:48:07.459Z,1020.63
2019-03-23T10:49:07.490Z,1020.63
2019-03-23T10:50:07.522Z,1020.67
2019-03-23T10:51:07.557Z,1020.60
2019-03-23T10:52:07.589Z,1020.64
2019-03-23T10:53:07.619Z,1020.70
2019-03-23T10:54:07.656Z,1020.67
2019-03-23T10:55:07.685Z,1020.66
2019-03-23T10:56:07.719Z,1020.65
2019-03-23T10:57:07.748Z,1020.61
2019-03-23T10:58:07.783Z,1020.66
2019-03-23T10:59:07.821Z,1020.65
2019-03-23T11:00:07.845Z,1020.70
2019-03-23T11:01:07.888Z,1020.69
2019-03-23T11:02:07.913Z,1020.66
2019-03-23T11:03:07.949Z,1020.58
2019-03-23T11:04:07.978Z,1020.55
2019-03-23T11:05:08.013Z,1020.53
2019-03-23T11:06:08.045Z,1020.47
2019-03-23T11:07:08.081Z,1020.50
2019-03-23T11:08:08.111Z,1020.37
2019-03-23T11:09:08.147Z,1020.44
2019-03-23T11:10:08.176Z,1020.42
2019-03-23T11:11:08.216Z,1020.49
2019-03-23T11:12:08.243Z,1020.43
2019-03-23T11:13:08.333Z,1020.34
2019-03-23T11:14:08.311Z,1020.39
2019-03-23T11:15:08.356Z,1020.29
2019-03-23T11:16:08.387Z,1020.39
2019-03-23T11:17:08.411Z,1020.34
2019-03-23T11:18:08.449Z,1020.35
2019-03-23T11:19:13.350Z,1020.29
2019-03-23T11:20:08.511Z,1020.23
2019-03-23T11:21:08.546Z,1020.33
2019-03-23T11:22:08.577Z,1020.32
2019-03-23T11:23:08.611Z,1020.26
2019-03-23T11:24:08.643Z,1020.27
2019-03-23T11:25:08.681Z,1020.19
2019-03-23T11:26:08.711Z,1020.30
2019-03-23T11:27:08.745Z,1020.20
2019-03-23T11:28:08.780Z,1020.39
2019-03-23T11:29:08.816Z,1020.28
2019-03-23T11:30:08.844Z,1020.31
2019-03-23T11:31:08.882Z,1020.32
2019-03-23T11:32:08.913Z,1020.23
2019-03-23T11:33:08.946Z,1020.30
2019-03-23T11:34:17.561Z,1020.25
2019-03-23T11:35:09.105Z,1020.17
2019-03-23T11:36:09.046Z,1020.10
2019-03-23T11:37:09.165Z,1019.95
2019-03-23T11:38:09.116Z,1019.92
2019-03-23T11:39:09.144Z,1019.96
2019-03-23T11:40:09.178Z,1019.98
2019-03-23T11:41:09.215Z,1020.04
2019-03-23T11:42:09.248Z,1019.93
2019-03-23T11:43:09.289Z,1019.86
2019-03-23T11:44:09.315Z,1019.81
2019-03-23T11:45:09.350Z,1019.91
2019-03-23T11:46:09.383Z,1019.87
2019-03-23T11:47:09.415Z,1019.80
2019-03-23T11:48:09.449Z,1019.80
2019-03-23T11:49:09.484Z,1019.87
2019-03-23T11:50:09.516Z,1019.71
2019-03-23T11:51:09.550Z,1019.72
2019-03-23T11:52:09.586Z,1019.64
2019-03-23T11:53:09.619Z,1019.68
2019-03-23T11:54:09.655Z,1019.60
2019-03-23T11:55:09.727Z,1019.58
2019-03-23T11:56:09.721Z,1019.60
2019-03-23T11:57:09.755Z,1019.55
2019-03-23T11:58:09.792Z,1019.45
2019-03-23T11:59:09.825Z,1019.41
2019-03-23T12:00:09.871Z,1019.39
2019-03-23T12:01:09.893Z,1019.43
2019-03-23T12:02:09.927Z,1019.39
2019-03-23T12:03:09.962Z,1019.38
2019-03-23T12:04:09.995Z,1019.24
2019-03-23T12:05:10.029Z,1019.30
2019-03-23T12:06:10.068Z,1019.34